Time;durP1;ratioP1;P1;durP2;ratioP2;P2;SDS_P1;SDS_P2;PMS_P1;PMS_P2;Temp;Humidity;BMP_temperature;BMP_pressure;BME280_temperature;BME280_humidity;BME280_pressure;Samples;Min_cycle;Max_cycle;Signal;HPM_P1;HPM_P2
2021/05/05 00:00:12;;;;;;;2.17;1.97;;;;;;;;;;4853929;29;20234;-86
2021/05/05 00:02:46;;;;;;;2.00;1.80;;;;;;;;;;4834548;29;20715;-88
2021/05/05 00:05:15;;;;;;;2.10;1.90;;;;;;;;;;4855523;29;20242;-85
2021/05/05 00:07:43;;;;;;;2.30;2.07;;;;;;;;;;4857809;29;20230;-85
2021/05/05 00:10:12;;;;;;;2.13;1.93;;;;;;;;;;4877981;29;20230;-86
2021/05/05 00:12:41;;;;;;;4.40;2.10;;;;;;;;;;4875353;29;20222;-84
2021/05/05 00:15:12;;;;;;;3.30;2.20;;;;;;;;;;4836254;29;20242;-84
2021/05/05 00:17:39;;;;;;;3.60;2.03;;;;;;;;;;4869839;29;20226;-87
2021/05/05 00:20:09;;;;;;;2.53;2.10;;;;;;;;;;4872256;29;20232;-86
2021/05/05 00:22:37;;;;;;;2.30;2.10;;;;;;;;;;4856550;29;20260;-86
2021/05/05 00:25:07;;;;;;;2.77;2.03;;;;;;;;;;4855950;29;21236;-83
2021/05/05 00:27:35;;;;;;;2.57;1.80;;;;;;;;;;4847801;29;20230;-85
2021/05/05 00:30:07;;;;;;;4.27;2.00;;;;;;;;;;4876069;29;20623;-83
2021/05/05 00:32:35;;;;;;;2.90;2.20;;;;;;;;;;4874291;29;20211;-88
2021/05/05 00:35:04;;;;;;;4.73;2.20;;;;;;;;;;4871503;29;20234;-87
2021/05/05 00:37:31;;;;;;;2.20;2.00;;;;;;;;;;4888988;29;20210;-87
2021/05/05 00:39:59;;;;;;;2.07;1.77;;;;;;;;;;4889570;29;20243;-86
2021/05/05 00:42:28;;;;;;;2.23;2.00;;;;;;;;;;4882733;29;20249;-84
2021/05/05 00:44:58;;;;;;;2.80;2.10;;;;;;;;;;4857016;29;20242;-85
2021/05/05 00:47:29;;;;;;;2.30;2.10;;;;;;;;;;4873100;29;20245;-84
2021/05/05 00:49:57;;;;;;;1.93;1.83;;;;;;;;;;4859172;29;20748;-87
2021/05/05 00:52:25;;;;;;;3.13;1.97;;;;;;;;;;4868190;29;20233;-87
2021/05/05 00:54:53;;;;;;;2.17;1.97;;;;;;;;;;4865113;29;20234;-87
2021/05/05 00:57:22;;;;;;;2.13;1.93;;;;;;;;;;4857808;29;20246;-86
2021/05/05 00:59:50;;;;;;;3.33;2.00;;;;;;;;;;4857188;29;20230;-87
2021/05/05 01:02:19;;;;;;;1.87;1.70;;;;;;;;;;4850526;29;20226;-84
2021/05/05 01:04:47;;;;;;;4.83;2.30;;;;;;;;;;4846233;29;20233;-86
2021/05/05 01:07:16;;;;;;;3.03;2.30;;;;;;;;;;4854939;29;20585;-86
2021/05/05 01:09:46;;;;;;;5.73;2.00;;;;;;;;;;4871056;29;20284;-85
2021/05/05 01:12:15;;;;;;;2.77;2.57;;;;;;;;;;4855813;29;20231;-83
2021/05/05 01:14:44;;;;;;;2.23;2.03;;;;;;;;;;4865107;29;20237;-88
2021/05/05 01:17:13;;;;;;;2.50;2.30;;;;;;;;;;4855786;29;20230;-85
2021/05/05 01:19:43;;;;;;;3.47;1.93;;;;;;;;;;4848504;29;20234;-88
2021/05/05 01:22:11;;;;;;;2.13;1.90;;;;;;;;;;4844517;29;22053;-84
2021/05/05 01:24:39;;;;;;;2.30;2.10;;;;;;;;;;4873537;29;20631;-85
2021/05/05 01:27:08;;;;;;;2.47;2.10;;;;;;;;;;4852157;29;20449;-85
2021/05/05 01:29:37;;;;;;;2.70;2.50;;;;;;;;;;4859015;29;20604;-84
2021/05/05 01:32:06;;;;;;;2.83;2.60;;;;;;;;;;4860911;29;20248;-84
2021/05/05 01:34:35;;;;;;;2.60;2.40;;;;;;;;;;4854842;29;20226;-86
2021/05/05 01:37:03;;;;;;;4.40;2.50;;;;;;;;;;4837876;29;20626;-86
2021/05/05 01:42:19;;;;;;;3.40;2.50;;;;;;;;;;4841070;29;20705;-87
2021/05/05 01:44:48;;;;;;;4.20;2.40;;;;;;;;;;4856346;29;20242;-87
2021/05/05 01:47:16;;;;;;;2.73;2.53;;;;;;;;;;4859543;29;20325;-86
2021/05/05 01:49:47;;;;;;;2.80;2.60;;;;;;;;;;4860097;29;20235;-87
2021/05/05 01:52:19;;;;;;;2.70;2.50;;;;;;;;;;4861893;29;20242;-90
2021/05/05 01:54:49;;;;;;;3.03;2.67;;;;;;;;;;4874274;29;20446;-88
2021/05/05 01:57:31;;;;;;;3.93;2.63;;;;;;;;;;4865997;29;20241;-86
2021/05/05 02:00:05;;;;;;;2.40;2.20;;;;;;;;;;4869224;29;20237;-86
2021/05/05 02:02:45;;;;;;;3.83;2.30;;;;;;;;;;4874423;29;20517;-84
2021/05/05 02:05:21;;;;;;;2.97;2.67;;;;;;;;;;4854471;29;20236;-87
2021/05/05 02:08:12;;;;;;;2.60;2.40;;;;;;;;;;4857706;29;20245;-87
2021/05/05 02:10:41;;;;;;;2.70;2.50;;;;;;;;;;4867031;29;20225;-87
2021/05/05 02:13:09;;;;;;;3.40;2.80;;;;;;;;;;4871679;29;20229;-88
2021/05/05 02:15:37;;;;;;;3.30;2.77;;;;;;;;;;4874465;29;20222;-88
2021/05/05 02:18:06;;;;;;;3.60;2.70;;;;;;;;;;4879569;29;20251;-87
2021/05/05 02:20:34;;;;;;;3.90;3.20;;;;;;;;;;4857109;29;20276;-87
2021/05/05 02:23:04;;;;;;;5.23;3.50;;;;;;;;;;4854022;29;20248;-86
2021/05/05 02:25:33;;;;;;;4.07;3.50;;;;;;;;;;4872362;29;20230;-88
2021/05/05 02:28:09;;;;;;;3.40;3.03;;;;;;;;;;4876017;29;20240;-88
2021/05/05 02:30:57;;;;;;;5.03;3.87;;;;;;;;;;4876837;29;20318;-88
2021/05/05 02:33:26;;;;;;;3.83;3.43;;;;;;;;;;4862349;29;20229;-89
2021/05/05 02:35:54;;;;;;;5.53;3.37;;;;;;;;;;4856587;29;20238;-89
2021/05/05 02:38:22;;;;;;;3.63;3.20;;;;;;;;;;4866406;29;20249;-88
2021/05/05 02:40:50;;;;;;;4.07;3.67;;;;;;;;;;4852509;29;20237;-90
2021/05/05 02:43:22;;;;;;;4.20;3.50;;;;;;;;;;4868532;29;20237;-90
2021/05/05 02:45:51;;;;;;;4.20;3.80;;;;;;;;;;4853850;29;20229;-89
2021/05/05 02:48:18;;;;;;;3.63;3.33;;;;;;;;;;4870607;29;20230;-88
2021/05/05 02:50:47;;;;;;;5.07;3.37;;;;;;;;;;4864275;29;20238;-87
2021/05/05 02:53:15;;;;;;;4.70;4.30;;;;;;;;;;4867291;29;20245;-88
2021/05/05 02:55:42;;;;;;;5.67;3.90;;;;;;;;;;4840645;29;20226;-87
2021/05/05 02:58:10;;;;;;;5.90;4.20;;;;;;;;;;4858360;29;20233;-83
2021/05/05 03:00:38;;;;;;;3.93;3.63;;;;;;;;;;4857287;29;20230;-86
2021/05/05 03:03:06;;;;;;;5.10;4.00;;;;;;;;;;4867873;29;20291;-88
2021/05/05 03:05:34;;;;;;;4.93;3.80;;;;;;;;;;4868514;29;20230;-89
2021/05/05 03:08:01;;;;;;;6.13;4.10;;;;;;;;;;4852320;29;20249;-83
2021/05/05 03:10:29;;;;;;;4.73;3.83;;;;;;;;;;4871392;29;20246;-90
2021/05/05 03:12:57;;;;;;;5.23;3.53;;;;;;;;;;4848032;29;20256;-84
2021/05/05 03:15:24;;;;;;;5.00;3.70;;;;;;;;;;4869108;29;20233;-86
2021/05/05 03:17:54;;;;;;;4.50;3.63;;;;;;;;;;4854253;29;20239;-86
2021/05/05 03:20:22;;;;;;;3.73;3.40;;;;;;;;;;4859195;29;22781;-89
2021/05/05 03:22:49;;;;;;;4.47;3.50;;;;;;;;;;4878289;29;20664;-88
2021/05/05 03:25:17;;;;;;;3.63;3.30;;;;;;;;;;4851073;29;20233;-84
2021/05/05 03:27:45;;;;;;;4.03;3.33;;;;;;;;;;4849677;29;20245;-85
2021/05/05 03:30:14;;;;;;;5.07;3.90;;;;;;;;;;4855742;29;20234;-85
2021/05/05 03:32:42;;;;;;;4.70;3.50;;;;;;;;;;4865983;29;20230;-82
2021/05/05 03:35:11;;;;;;;3.63;3.20;;;;;;;;;;4854750;29;20270;-83
2021/05/05 03:37:39;;;;;;;4.73;3.30;;;;;;;;;;4855518;29;20238;-84
2021/05/05 03:40:09;;;;;;;5.47;3.33;;;;;;;;;;4862785;29;20222;-86
2021/05/05 03:42:36;;;;;;;5.23;3.60;;;;;;;;;;4858626;29;20226;-84
2021/05/05 03:45:06;;;;;;;3.80;3.40;;;;;;;;;;4857378;29;20226;-87
2021/05/05 03:47:34;;;;;;;3.10;2.80;;;;;;;;;;4855265;29;20441;-86
2021/05/05 03:50:05;;;;;;;3.07;1.20;;;;;;;;;;4861533;29;20261;-88
2021/05/05 03:52:33;;;;;;;2.50;0.80;;;;;;;;;;4848733;29;20241;-87
2021/05/05 03:55:01;;;;;;;0.60;0.60;;;;;;;;;;4850147;29;20241;-85
2021/05/05 03:57:28;;;;;;;1.30;0.43;;;;;;;;;;4853753;29;20241;-88
2021/05/05 03:59:56;;;;;;;1.30;0.50;;;;;;;;;;4843039;29;20230;-85
2021/05/05 04:02:24;;;;;;;0.50;0.50;;;;;;;;;;4859535;29;20237;-86
2021/05/05 04:04:51;;;;;;;1.53;0.37;;;;;;;;;;4853977;29;20238;-87
2021/05/05 04:07:19;;;;;;;0.30;0.30;;;;;;;;;;4845280;29;20246;-86
2021/05/05 04:09:47;;;;;;;0.60;0.40;;;;;;;;;;4854387;29;20257;-87
2021/05/05 04:12:16;;;;;;;0.50;0.40;;;;;;;;;;4847329;29;20226;-86
2021/05/05 04:14:44;;;;;;;0.30;0.30;;;;;;;;;;4860704;29;20616;-87
2021/05/05 04:17:30;;;;;;;0.80;0.40;;;;;;;;;;4860982;29;20238;-84
2021/05/05 04:20:19;;;;;;;0.60;0.40;;;;;;;;;;4861941;29;21606;-86
2021/05/05 04:23:05;;;;;;;0.47;0.40;;;;;;;;;;4853043;29;20230;-88
2021/05/05 04:25:49;;;;;;;0.63;0.43;;;;;;;;;;4852344;29;20248;-87
2021/05/05 04:28:17;;;;;;;0.73;0.50;;;;;;;;;;4853250;29;20234;-88
2021/05/05 04:30:45;;;;;;;0.50;0.50;;;;;;;;;;4866885;29;20237;-87
2021/05/05 04:33:12;;;;;;;0.77;0.70;;;;;;;;;;4865407;29;20233;-88
2021/05/05 04:35:40;;;;;;;0.50;0.50;;;;;;;;;;4867736;29;20241;-85
2021/05/05 04:38:08;;;;;;;1.13;0.50;;;;;;;;;;4849968;29;20252;-88
2021/05/05 04:40:37;;;;;;;0.80;0.40;;;;;;;;;;4872738;29;20226;-89
2021/05/05 04:43:05;;;;;;;0.43;0.30;;;;;;;;;;4864691;29;20385;-86
2021/05/05 04:45:36;;;;;;;0.30;0.30;;;;;;;;;;4866614;29;20228;-86
2021/05/05 04:48:05;;;;;;;0.43;0.43;;;;;;;;;;4848008;29;20774;-89
2021/05/05 04:50:33;;;;;;;0.57;0.50;;;;;;;;;;4851915;29;20237;-88
2021/05/05 04:53:00;;;;;;;0.67;0.40;;;;;;;;;;4865969;29;20232;-89
2021/05/05 04:55:28;;;;;;;0.53;0.40;;;;;;;;;;4839074;29;20750;-86
2021/05/05 04:57:55;;;;;;;0.30;0.30;;;;;;;;;;4846889;29;20266;-88
2021/05/05 05:00:25;;;;;;;0.40;0.40;;;;;;;;;;4870034;29;20240;-89
2021/05/05 05:02:53;;;;;;;1.83;0.40;;;;;;;;;;4859670;29;20233;-89
2021/05/05 05:05:22;;;;;;;1.10;0.43;;;;;;;;;;4852651;29;20225;-89
2021/05/05 05:07:50;;;;;;;0.90;0.60;;;;;;;;;;4869622;29;20229;-88
2021/05/05 05:10:17;;;;;;;1.03;0.63;;;;;;;;;;4866189;29;20249;-88
2021/05/05 05:12:45;;;;;;;0.40;0.40;;;;;;;;;;4840266;29;20244;-86
2021/05/05 05:15:13;;;;;;;0.50;0.50;;;;;;;;;;4863083;29;20746;-87
2021/05/05 05:17:42;;;;;;;1.23;0.40;;;;;;;;;;4873026;29;20233;-86
2021/05/05 05:20:10;;;;;;;0.80;0.50;;;;;;;;;;4857418;29;20256;-89
2021/05/05 05:22:38;;;;;;;1.27;0.60;;;;;;;;;;4874779;29;20241;-87
2021/05/05 05:25:09;;;;;;;1.53;0.50;;;;;;;;;;4873598;29;20253;-88
2021/05/05 05:27:37;;;;;;;1.03;0.50;;;;;;;;;;4871892;29;20240;-89
2021/05/05 05:30:06;;;;;;;0.50;0.50;;;;;;;;;;4866875;29;20249;-89
2021/05/05 05:32:34;;;;;;;0.93;0.80;;;;;;;;;;4878520;29;20241;-87
2021/05/05 05:35:04;;;;;;;0.50;0.50;;;;;;;;;;4846295;29;20245;-87
2021/05/05 05:37:32;;;;;;;0.73;0.60;;;;;;;;;;4866372;29;20233;-86
2021/05/05 05:40:00;;;;;;;0.30;0.30;;;;;;;;;;4860946;29;20619;-87
2021/05/05 05:42:27;;;;;;;1.27;0.70;;;;;;;;;;4858476;29;20238;-86
2021/05/05 05:44:56;;;;;;;1.03;0.40;;;;;;;;;;4878449;29;20230;-84
2021/05/05 05:47:23;;;;;;;0.30;0.30;;;;;;;;;;4852059;29;20242;-87
2021/05/05 05:49:51;;;;;;;2.77;0.60;;;;;;;;;;4854018;29;20249;-84
2021/05/05 05:52:20;;;;;;;1.97;0.70;;;;;;;;;;4855904;29;20237;-82
2021/05/05 05:54:47;;;;;;;1.63;0.50;;;;;;;;;;4854535;29;20230;-89
2021/05/05 05:57:16;;;;;;;1.07;0.87;;;;;;;;;;4859619;29;20235;-82
2021/05/05 05:59:44;;;;;;;1.30;0.60;;;;;;;;;;4875716;29;20504;-87
2021/05/05 06:02:12;;;;;;;1.00;0.70;;;;;;;;;;4858661;29;20593;-84
2021/05/05 06:04:40;;;;;;;1.73;0.80;;;;;;;;;;4839320;29;20269;-83
2021/05/05 06:07:08;;;;;;;1.57;0.67;;;;;;;;;;4847569;29;20226;-86
2021/05/05 06:09:36;;;;;;;6.03;0.83;;;;;;;;;;4849530;29;20233;-80
2021/05/05 06:12:05;;;;;;;0.50;0.50;;;;;;;;;;4842727;29;20967;-82
2021/05/05 06:14:33;;;;;;;0.60;0.50;;;;;;;;;;4850184;29;20238;-81
2021/05/05 06:17:02;;;;;;;0.60;0.60;;;;;;;;;;4859373;29;20242;-82
2021/05/05 06:19:30;;;;;;;0.60;0.60;;;;;;;;;;4853051;29;20245;-82
2021/05/05 06:21:57;;;;;;;0.60;0.60;;;;;;;;;;4867194;29;20250;-82
2021/05/05 06:24:25;;;;;;;0.53;0.53;;;;;;;;;;4867333;29;20229;-82
2021/05/05 06:26:53;;;;;;;1.03;0.57;;;;;;;;;;4847515;29;20246;-83
2021/05/05 06:29:21;;;;;;;0.80;0.70;;;;;;;;;;4885793;29;20245;-82
2021/05/05 06:31:49;;;;;;;1.20;0.80;;;;;;;;;;4854354;29;20240;-80
2021/05/05 06:34:16;;;;;;;0.67;0.67;;;;;;;;;;4858826;29;20239;-80
2021/05/05 06:36:44;;;;;;;0.60;0.60;;;;;;;;;;4856784;29;20230;-86
2021/05/05 06:39:12;;;;;;;1.10;0.83;;;;;;;;;;4856118;29;20234;-81
2021/05/05 06:41:41;;;;;;;32.67;2.57;;;;;;;;;;4860327;29;20744;-81
2021/05/05 06:44:10;;;;;;;1.40;0.90;;;;;;;;;;4868616;29;20239;-82
2021/05/05 06:46:42;;;;;;;0.90;0.70;;;;;;;;;;4851796;29;20234;-82
2021/05/05 06:49:11;;;;;;;0.70;0.70;;;;;;;;;;4872391;29;20222;-83
2021/05/05 06:51:39;;;;;;;0.97;0.87;;;;;;;;;;4891505;29;20222;-85
2021/05/05 06:54:07;;;;;;;1.33;1.07;;;;;;;;;;4870668;29;20218;-84
2021/05/05 06:56:35;;;;;;;2.93;1.00;;;;;;;;;;4875451;29;20225;-82
2021/05/05 06:59:03;;;;;;;9.33;2.10;;;;;;;;;;4869125;29;20250;-82
2021/05/05 07:01:32;;;;;;;1.17;0.77;;;;;;;;;;4833946;29;20242;-79
2021/05/05 07:03:59;;;;;;;1.00;0.80;;;;;;;;;;4845283;29;20230;-79
2021/05/05 07:06:27;;;;;;;3.17;1.10;;;;;;;;;;4843441;29;20230;-79
2021/05/05 07:08:54;;;;;;;2.80;1.10;;;;;;;;;;4845723;29;20712;-80
2021/05/05 07:11:22;;;;;;;1.13;0.87;;;;;;;;;;4851775;29;20234;-79
2021/05/05 07:13:49;;;;;;;1.53;0.90;;;;;;;;;;4856115;29;20254;-82
2021/05/05 07:16:17;;;;;;;1.50;1.30;;;;;;;;;;4846828;29;20237;-80
2021/05/05 07:18:45;;;;;;;1.37;0.73;;;;;;;;;;4851355;29;20234;-79
2021/05/05 07:21:13;;;;;;;0.87;0.80;;;;;;;;;;4859936;29;20720;-79
2021/05/05 07:23:42;;;;;;;1.47;0.80;;;;;;;;;;4849764;29;20261;-79
2021/05/05 07:26:10;;;;;;;1.80;0.97;;;;;;;;;;4857240;29;20277;-80
2021/05/05 07:28:38;;;;;;;2.07;0.90;;;;;;;;;;4839148;29;20253;-83
2021/05/05 07:31:06;;;;;;;2.80;0.80;;;;;;;;;;4858908;29;20457;-80
2021/05/05 07:33:35;;;;;;;1.43;1.03;;;;;;;;;;4856601;29;20234;-82
2021/05/05 07:36:06;;;;;;;1.17;1.07;;;;;;;;;;4855789;29;20233;-80
2021/05/05 07:38:52;;;;;;;1.20;1.10;;;;;;;;;;4855063;29;20234;-80
2021/05/05 07:47:01;;;;;;;2.93;1.30;;;;;;;;;;4832835;29;20246;-80
2021/05/05 07:49:38;;;;;;;1.87;0.97;;;;;;;;;;4842199;29;20256;-81
2021/05/05 07:52:07;;;;;;;1.30;1.20;;;;;;;;;;4853322;29;20249;-80
2021/05/05 07:54:34;;;;;;;1.97;1.27;;;;;;;;;;4866906;29;20255;-80
2021/05/05 07:57:01;;;;;;;2.40;1.30;;;;;;;;;;4879627;29;20227;-82
2021/05/05 07:59:28;;;;;;;2.90;1.10;;;;;;;;;;4873823;29;20236;-84
2021/05/05 08:01:56;;;;;;;2.23;1.07;;;;;;;;;;4867927;29;20241;-83
2021/05/05 08:04:24;;;;;;;1.60;0.90;;;;;;;;;;4847069;29;20222;-80
2021/05/05 08:06:52;;;;;;;0.87;0.83;;;;;;;;;;4870286;29;20612;-81
2021/05/05 08:09:22;;;;;;;1.07;0.80;;;;;;;;;;4851981;29;20253;-80
2021/05/05 08:11:49;;;;;;;1.07;0.80;;;;;;;;;;4850147;29;20234;-80
2021/05/05 08:14:17;;;;;;;0.83;0.80;;;;;;;;;;4843666;29;20237;-86
2021/05/05 08:16:45;;;;;;;0.83;0.80;;;;;;;;;;4848860;29;20257;-84
2021/05/05 08:19:13;;;;;;;0.80;0.60;;;;;;;;;;4848161;29;20233;-87
2021/05/05 08:21:41;;;;;;;1.60;0.77;;;;;;;;;;4838292;29;20241;-81
2021/05/05 08:24:10;;;;;;;0.73;0.60;;;;;;;;;;4854150;29;20233;-88
2021/05/05 08:26:40;;;;;;;0.63;0.60;;;;;;;;;;4827620;29;20246;-83
2021/05/05 08:29:08;;;;;;;1.43;0.60;;;;;;;;;;4851580;29;20238;-83
2021/05/05 08:31:35;;;;;;;0.60;0.50;;;;;;;;;;4848369;29;20605;-84
2021/05/05 08:34:04;;;;;;;2.47;0.60;;;;;;;;;;4846420;29;20241;-83
2021/05/05 08:36:32;;;;;;;1.80;0.60;;;;;;;;;;4858295;29;20226;-84
2021/05/05 08:39:15;;;;;;;0.87;0.60;;;;;;;;;;4851452;29;20254;-82
2021/05/05 08:41:43;;;;;;;1.93;0.80;;;;;;;;;;4848338;29;20632;-80
2021/05/05 08:44:12;;;;;;;1.43;0.67;;;;;;;;;;4849736;29;20735;-82
2021/05/05 08:46:41;;;;;;;0.90;0.63;;;;;;;;;;4860135;29;20231;-83
2021/05/05 08:49:10;;;;;;;2.20;0.70;;;;;;;;;;4846929;29;20243;-82
2021/05/05 08:51:39;;;;;;;0.60;0.40;;;;;;;;;;4850658;29;20230;-82
2021/05/05 08:54:08;;;;;;;1.40;0.70;;;;;;;;;;4868913;29;20259;-81
2021/05/05 08:56:37;;;;;;;1.00;0.80;;;;;;;;;;4859402;29;20240;-81
2021/05/05 08:59:08;;;;;;;0.90;0.70;;;;;;;;;;4855195;29;20248;-80
2021/05/05 09:01:37;;;;;;;1.37;0.70;;;;;;;;;;4833856;29;20242;-85
2021/05/05 09:04:06;;;;;;;0.60;0.60;;;;;;;;;;4855664;29;20245;-80
2021/05/05 09:06:59;;;;;;;1.27;0.80;;;;;;;;;;4856039;29;20704;-81
2021/05/05 09:09:40;;;;;;;2.20;0.90;;;;;;;;;;4830976;29;20242;-81
2021/05/05 09:12:16;;;;;;;2.87;1.00;;;;;;;;;;4852405;29;20371;-80
2021/05/05 09:15:00;;;;;;;0.93;0.80;;;;;;;;;;4848951;29;20236;-80
2021/05/05 09:17:30;;;;;;;2.73;1.00;;;;;;;;;;4851718;29;20230;-83
2021/05/05 09:20:15;;;;;;;2.80;1.03;;;;;;;;;;4872421;29;20233;-79
2021/05/05 09:22:51;;;;;;;2.33;0.90;;;;;;;;;;4839364;29;20636;-85
2021/05/05 09:25:24;;;;;;;1.80;1.03;;;;;;;;;;4858980;29;20237;-83
2021/05/05 09:28:11;;;;;;;2.23;1.00;;;;;;;;;;4857606;29;20590;-80
2021/05/05 09:30:41;;;;;;;3.30;1.30;;;;;;;;;;4854778;29;20245;-85
2021/05/05 09:33:10;;;;;;;2.50;1.20;;;;;;;;;;4849318;29;20242;-86
2021/05/05 09:35:40;;;;;;;5.27;1.40;;;;;;;;;;4858866;29;20226;-81
2021/05/05 09:38:10;;;;;;;3.20;1.30;;;;;;;;;;4838247;29;20237;-80
2021/05/05 09:40:54;;;;;;;3.23;1.60;;;;;;;;;;4859074;29;20230;-81
2021/05/05 09:43:22;;;;;;;3.10;1.10;;;;;;;;;;4857183;29;21103;-84
2021/05/05 09:45:51;;;;;;;3.23;1.20;;;;;;;;;;4856981;29;20231;-81
2021/05/05 09:48:22;;;;;;;2.50;1.20;;;;;;;;;;4853717;29;20234;-81
2021/05/05 09:50:58;;;;;;;6.03;1.30;;;;;;;;;;4867334;29;20241;-86
2021/05/05 09:53:27;;;;;;;2.93;1.20;;;;;;;;;;4849016;29;20226;-81
2021/05/05 09:56:07;;;;;;;2.07;1.30;;;;;;;;;;4858203;29;20226;-81
2021/05/05 09:58:37;;;;;;;1.50;0.97;;;;;;;;;;4851315;29;20234;-85
2021/05/05 10:01:20;;;;;;;3.90;1.63;;;;;;;;;;4857798;29;20615;-81
2021/05/05 10:03:52;;;;;;;3.87;1.30;;;;;;;;;;4869341;29;20234;-84
2021/05/05 10:06:34;;;;;;;3.33;1.33;;;;;;;;;;4855996;29;20234;-82
2021/05/05 10:09:09;;;;;;;2.40;1.17;;;;;;;;;;4858334;29;20253;-84
2021/05/05 10:11:38;;;;;;;4.07;1.00;;;;;;;;;;4856218;29;20230;-81
2021/05/05 10:14:07;;;;;;;5.77;1.50;;;;;;;;;;4859788;29;20244;-83
2021/05/05 10:16:40;;;;;;;1.97;1.10;;;;;;;;;;4861475;29;20234;-81
2021/05/05 10:19:14;;;;;;;2.93;1.27;;;;;;;;;;4856596;29;20237;-80
2021/05/05 10:21:46;;;;;;;1.50;1.30;;;;;;;;;;4858306;29;20226;-84
2021/05/05 10:24:15;;;;;;;2.13;1.33;;;;;;;;;;4858890;29;20233;-83
2021/05/05 10:26:46;;;;;;;2.43;0.90;;;;;;;;;;4858857;29;20731;-81
2021/05/05 10:29:15;;;;;;;2.20;1.30;;;;;;;;;;4853084;29;20234;-84
2021/05/05 10:31:51;;;;;;;2.63;1.20;;;;;;;;;;4843115;29;20234;-81
2021/05/05 10:34:22;;;;;;;4.10;1.30;;;;;;;;;;4838147;29;20236;-84
2021/05/05 10:36:54;;;;;;;2.30;1.17;;;;;;;;;;4859239;29;20229;-80
2021/05/05 10:39:42;;;;;;;3.40;1.10;;;;;;;;;;4860973;29;20238;-84
2021/05/05 10:42:14;;;;;;;3.90;1.20;;;;;;;;;;4850929;29;20226;-83
2021/05/05 10:44:52;;;;;;;1.70;1.27;;;;;;;;;;4845908;29;20230;-80
2021/05/05 10:47:31;;;;;;;1.87;1.10;;;;;;;;;;4861225;29;20230;-89
2021/05/05 10:50:13;;;;;;;3.90;1.90;;;;;;;;;;4897040;29;20222;-88
2021/05/05 10:53:00;;;;;;;3.60;1.57;;;;;;;;;;4867637;29;20222;-85
2021/05/05 10:55:36;;;;;;;2.93;1.20;;;;;;;;;;4854556;29;20237;-80
2021/05/05 10:58:12;;;;;;;5.97;1.30;;;;;;;;;;4856936;29;20226;-80
2021/05/05 11:01:01;;;;;;;5.73;1.30;;;;;;;;;;4848291;29;20241;-80
2021/05/05 11:04:04;;;;;;;3.43;1.23;;;;;;;;;;4859467;29;20316;-79
2021/05/05 11:06:53;;;;;;;4.83;1.50;;;;;;;;;;4856110;29;20252;-81
2021/05/05 11:09:41;;;;;;;3.77;1.40;;;;;;;;;;4848220;29;20621;-82
2021/05/05 11:12:48;;;;;;;3.43;1.37;;;;;;;;;;4852463;29;20231;-82
2021/05/05 11:15:16;;;;;;;2.63;1.40;;;;;;;;;;4858905;29;20234;-81
2021/05/05 11:17:45;;;;;;;2.67;1.30;;;;;;;;;;4858981;29;20241;-87
2021/05/05 11:20:42;;;;;;;4.93;1.33;;;;;;;;;;4859014;29;20715;-83
2021/05/05 11:23:10;;;;;;;3.77;1.50;;;;;;;;;;4849694;29;20238;-80
2021/05/05 11:25:38;;;;;;;5.20;1.53;;;;;;;;;;4845678;29;20735;-80
2021/05/05 11:28:06;;;;;;;3.47;1.50;;;;;;;;;;4850752;29;20241;-82
2021/05/05 11:30:39;;;;;;;4.37;1.57;;;;;;;;;;4872880;29;20245;-82
2021/05/05 11:33:10;;;;;;;5.37;1.50;;;;;;;;;;4861517;29;20237;-85
2021/05/05 11:35:39;;;;;;;1.57;1.27;;;;;;;;;;4838493;29;20740;-79
2021/05/05 11:38:18;;;;;;;2.30;1.30;;;;;;;;;;4853371;29;20236;-84
2021/05/05 11:40:59;;;;;;;2.50;0.93;;;;;;;;;;4870767;29;20241;-83
2021/05/05 11:43:29;;;;;;;3.77;1.13;;;;;;;;;;4855392;29;20240;-81
2021/05/05 11:46:02;;;;;;;4.83;1.03;;;;;;;;;;4849514;29;20238;-86
2021/05/05 11:48:36;;;;;;;3.63;1.20;;;;;;;;;;4852230;29;20236;-85
2021/05/05 11:51:16;;;;;;;4.97;1.53;;;;;;;;;;4850461;29;20233;-85
2021/05/05 11:53:45;;;;;;;3.40;1.43;;;;;;;;;;4855082;29;20233;-84
2021/05/05 11:56:21;;;;;;;5.03;1.20;;;;;;;;;;4867638;29;20245;-84
2021/05/05 11:59:00;;;;;;;2.93;1.37;;;;;;;;;;4838364;29;20241;-83
2021/05/05 12:01:36;;;;;;;3.73;1.20;;;;;;;;;;4867513;29;20222;-81
2021/05/05 12:04:15;;;;;;;2.23;1.33;;;;;;;;;;4858816;29;20233;-83
2021/05/05 12:06:51;;;;;;;3.77;1.40;;;;;;;;;;4854154;29;20230;-82
2021/05/05 12:09:29;;;;;;;1.67;1.03;;;;;;;;;;4859962;29;20226;-83
2021/05/05 12:12:26;;;;;;;2.63;1.20;;;;;;;;;;4843903;29;20603;-81
2021/05/05 12:14:56;;;;;;;3.63;1.40;;;;;;;;;;4850021;29;20226;-86
2021/05/05 12:17:29;;;;;;;2.43;1.47;;;;;;;;;;4879749;29;20221;-87
2021/05/05 12:20:06;;;;;;;2.67;1.03;;;;;;;;;;4874608;29;20237;-86
2021/05/05 12:22:36;;;;;;;2.33;1.20;;;;;;;;;;4874972;29;20226;-81
2021/05/05 12:25:16;;;;;;;3.07;1.27;;;;;;;;;;4869184;29;20234;-80
2021/05/05 12:28:13;;;;;;;2.37;1.20;;;;;;;;;;4875856;29;20238;-84
2021/05/05 12:30:49;;;;;;;4.60;1.50;;;;;;;;;;4854565;29;20234;-83
2021/05/05 12:33:31;;;;;;;2.17;1.13;;;;;;;;;;4866881;29;20234;-85
2021/05/05 12:35:59;;;;;;;3.60;1.40;;;;;;;;;;4864006;29;20231;-85
2021/05/05 12:38:27;;;;;;;3.57;1.27;;;;;;;;;;4851405;29;20233;-85
2021/05/05 12:41:02;;;;;;;2.67;1.30;;;;;;;;;;4868839;29;20234;-85
2021/05/05 12:43:30;;;;;;;4.07;1.37;;;;;;;;;;4835610;29;20249;-84
2021/05/05 12:45:59;;;;;;;2.50;1.37;;;;;;;;;;4834287;29;20238;-85
2021/05/05 12:48:30;;;;;;;2.90;1.80;;;;;;;;;;4869333;29;20743;-84
2021/05/05 12:51:10;;;;;;;3.47;1.40;;;;;;;;;;4859558;29;20252;-85
2021/05/05 12:53:56;;;;;;;2.67;1.10;;;;;;;;;;4861631;29;20783;-82
2021/05/05 12:56:42;;;;;;;3.93;1.37;;;;;;;;;;4867053;29;20750;-85
2021/05/05 12:59:11;;;;;;;3.20;1.07;;;;;;;;;;4843707;29;20232;-86
2021/05/05 13:01:38;;;;;;;3.20;1.07;;;;;;;;;;4846694;29;20617;-84
2021/05/05 13:04:07;;;;;;;1.73;1.27;;;;;;;;;;4872877;29;20233;-85
2021/05/05 13:06:39;;;;;;;2.27;1.20;;;;;;;;;;4836752;29;20256;-84
2021/05/05 13:09:13;;;;;;;2.70;1.40;;;;;;;;;;4863969;29;20237;-83
2021/05/05 13:11:44;;;;;;;2.93;1.10;;;;;;;;;;4861109;29;20245;-84
2021/05/05 13:14:16;;;;;;;7.47;1.53;;;;;;;;;;4868682;29;20237;-86
2021/05/05 13:16:59;;;;;;;1.97;1.10;;;;;;;;;;4855514;29;20241;-84
2021/05/05 13:20:12;;;;;;;2.20;1.40;;;;;;;;;;4856282;29;20234;-84
2021/05/05 13:31:21;;;;;;;4.67;1.40;;;;;;;;;;4853636;29;20231;-83
2021/05/05 13:34:04;;;;;;;2.53;1.50;;;;;;;;;;4860734;29;20627;-84
2021/05/05 13:36:50;;;;;;;3.50;1.30;;;;;;;;;;4865959;29;20235;-82
2021/05/05 13:39:20;;;;;;;2.00;1.50;;;;;;;;;;4861176;29;20217;-86
2021/05/05 13:41:53;;;;;;;3.33;1.27;;;;;;;;;;4875954;29;20231;-85
2021/05/05 13:44:31;;;;;;;1.73;1.30;;;;;;;;;;4862645;29;20315;-84
2021/05/05 13:47:20;;;;;;;2.80;1.47;;;;;;;;;;4871629;29;20249;-78
2021/05/05 13:49:51;;;;;;;1.80;1.00;;;;;;;;;;4849424;29;20234;-85
2021/05/05 13:52:19;;;;;;;2.13;1.40;;;;;;;;;;4876371;29;20218;-84
2021/05/05 13:55:06;;;;;;;1.67;1.00;;;;;;;;;;4896831;29;20244;-84
2021/05/05 13:57:34;;;;;;;1.97;1.20;;;;;;;;;;4891346;29;20226;-82
2021/05/05 14:00:06;;;;;;;2.83;1.13;;;;;;;;;;4891203;29;20226;-83
2021/05/05 14:02:40;;;;;;;1.77;1.07;;;;;;;;;;4860045;29;20229;-79
2021/05/05 14:05:09;;;;;;;3.77;1.53;;;;;;;;;;4841262;29;20222;-79
2021/05/05 14:07:38;;;;;;;4.20;1.47;;;;;;;;;;4870122;29;20225;-80
2021/05/05 14:10:07;;;;;;;5.23;1.40;;;;;;;;;;4853743;29;20241;-77
2021/05/05 14:12:35;;;;;;;1.90;1.00;;;;;;;;;;4850810;29;20599;-80
2021/05/05 14:15:05;;;;;;;2.83;1.20;;;;;;;;;;4872546;29;20234;-81
2021/05/05 14:17:36;;;;;;;2.37;1.23;;;;;;;;;;4856050;29;20230;-82
2021/05/05 14:20:07;;;;;;;5.00;1.40;;;;;;;;;;4853492;29;20725;-80
2021/05/05 14:22:35;;;;;;;3.83;1.23;;;;;;;;;;4873284;29;20324;-80
2021/05/05 14:25:05;;;;;;;1.63;1.20;;;;;;;;;;4857911;29;20230;-81
2021/05/05 14:27:34;;;;;;;1.80;1.17;;;;;;;;;;4840838;29;20237;-80
2021/05/05 14:30:03;;;;;;;2.27;1.10;;;;;;;;;;4872633;29;20717;-81
2021/05/05 14:32:31;;;;;;;6.73;1.83;;;;;;;;;;4852358;29;20241;-79
2021/05/05 14:35:00;;;;;;;2.60;1.40;;;;;;;;;;4843758;29;20616;-81
2021/05/05 14:37:28;;;;;;;3.67;1.30;;;;;;;;;;4849649;29;20226;-81
2021/05/05 14:39:58;;;;;;;3.23;1.00;;;;;;;;;;4855218;29;20697;-82
2021/05/05 14:42:28;;;;;;;3.43;1.20;;;;;;;;;;4857977;29;20582;-81
2021/05/05 14:45:05;;;;;;;2.07;1.10;;;;;;;;;;4850860;29;20486;-83
2021/05/05 14:47:55;;;;;;;2.27;1.10;;;;;;;;;;4847558;29;20612;-82
2021/05/05 14:50:22;;;;;;;7.40;1.60;;;;;;;;;;4838135;29;20226;-85
2021/05/05 14:52:50;;;;;;;4.07;1.10;;;;;;;;;;4842007;29;20238;-83
2021/05/05 14:55:18;;;;;;;2.30;1.37;;;;;;;;;;4872285;29;20688;-81
2021/05/05 14:57:48;;;;;;;2.50;1.20;;;;;;;;;;4851836;29;20231;-85
2021/05/05 15:00:16;;;;;;;3.50;1.20;;;;;;;;;;4854885;29;20252;-83
2021/05/05 15:02:45;;;;;;;3.13;1.13;;;;;;;;;;4859911;29;20238;-82
2021/05/05 15:05:14;;;;;;;3.20;1.30;;;;;;;;;;4868228;29;20238;-81
2021/05/05 15:07:42;;;;;;;2.80;1.00;;;;;;;;;;4854135;29;20226;-84
2021/05/05 15:10:15;;;;;;;3.17;1.40;;;;;;;;;;4870442;29;20234;-81
2021/05/05 15:12:50;;;;;;;4.00;1.30;;;;;;;;;;4866066;29;20234;-84
2021/05/05 15:15:33;;;;;;;2.87;1.27;;;;;;;;;;4843927;29;20238;-82
2021/05/05 15:38:02;;;;;;;2.22;0.90;;;;;;;;;;4840767;29;20225;-80
2021/05/05 15:40:41;;;;;;;3.33;1.83;;;;;;;;;;4834020;29;20222;-80
2021/05/05 15:43:34;;;;;;;1.75;1.20;;;;;;;;;;4853107;29;20222;-82
2021/05/05 15:46:15;;;;;;;1.92;1.30;;;;;;;;;;4862001;29;20223;-81